Time;durP1;ratioP1;P1;durP2;ratioP2;P2;SDS_P1;SDS_P2;PMS_P1;PMS_P2;Temp;Humidity;BMP_temperature;BMP_pressure;BME280_temperature;BME280_humidity;BME280_pressure;Samples;Min_cycle;Max_cycle;Signal;HPM_P1;HPM_P2
2021/07/12 00:00:21;;;;;;;6.77;6.20;;;21.80;41.90;;;;;;5013339;28;20423;-79
2021/07/12 00:02:47;;;;;;;7.03;6.40;;;21.80;42.00;;;;;;5013599;28;20823;-78
2021/07/12 00:05:14;;;;;;;7.07;6.50;;;21.70;41.80;;;;;;5013445;28;20404;-78
2021/07/12 00:07:41;;;;;;;6.47;5.67;;;21.70;41.80;;;;;;5013912;28;20953;-78
2021/07/12 00:10:08;;;;;;;6.40;5.80;;;21.70;41.80;;;;;;5013636;28;20463;-78
2021/07/12 00:12:34;;;;;;;6.40;5.80;;;21.70;41.80;;;;;;5013309;28;20775;-79
2021/07/12 00:15:00;;;;;;;5.90;5.47;;;21.70;41.80;;;;;;5013137;28;20405;-79
2021/07/12 00:17:26;;;;;;;6.33;5.73;;;21.70;41.80;;;;;;5013188;28;20436;-79
2021/07/12 00:19:51;;;;;;;5.70;5.30;;;21.70;41.80;;;;;;4998543;28;20200;-78
2021/07/12 00:22:17;;;;;;;6.80;6.30;;;21.70;41.80;;;;;;5017549;28;20601;-78
2021/07/12 00:24:42;;;;;;;5.97;5.50;;;21.70;41.80;;;;;;5016800;28;20177;-78
2021/07/12 00:27:08;;;;;;;5.97;5.57;;;21.70;41.80;;;;;;5016648;28;20185;-78
2021/07/12 00:29:33;;;;;;;6.03;5.63;;;21.70;41.80;;;;;;5016957;28;20236;-78
2021/07/12 00:31:59;;;;;;;6.50;6.00;;;21.70;41.80;;;;;;5016721;28;20182;-77
2021/07/12 00:34:24;;;;;;;6.20;5.30;;;21.70;41.80;;;;;;5016468;28;20165;-78
2021/07/12 00:36:50;;;;;;;5.53;5.13;;;21.70;41.80;;;;;;5016808;28;20561;-77
2021/07/12 00:39:15;;;;;;;5.90;5.50;;;21.70;41.80;;;;;;5016440;28;20180;-78
2021/07/12 00:41:41;;;;;;;5.50;5.10;;;21.70;41.80;;;;;;5016881;28;20177;-79
2021/07/12 00:44:07;;;;;;;5.70;5.30;;;21.70;41.80;;;;;;5016198;28;20170;-79
2021/07/12 00:46:33;;;;;;;5.13;4.77;;;21.70;41.80;;;;;;5016137;28;20279;-78
2021/07/12 00:48:59;;;;;;;5.90;5.40;;;21.70;41.80;;;;;;5016627;28;20201;-78
2021/07/12 00:51:25;;;;;;;5.77;5.27;;;21.70;41.80;;;;;;5016335;28;20933;-78
2021/07/12 00:53:51;;;;;;;5.70;5.30;;;21.70;41.80;;;;;;5016032;28;20169;-78
2021/07/12 00:56:18;;;;;;;5.40;5.00;;;21.70;41.80;;;;;;5016223;28;20755;-78
2021/07/12 00:58:44;;;;;;;6.03;5.40;;;21.70;41.80;;;;;;5015727;28;20891;-78
2021/07/12 01:01:10;;;;;;;5.20;4.80;;;21.70;41.80;;;;;;4999238;28;20435;-78
2021/07/12 01:03:36;;;;;;;6.50;5.40;;;21.70;41.80;;;;;;5016242;28;20181;-78
2021/07/12 01:06:03;;;;;;;5.67;5.27;;;21.70;42.00;;;;;;5015710;28;20482;-78
2021/07/12 01:08:29;;;;;;;5.67;5.17;;;21.70;41.80;;;;;;5015845;28;20205;-78
2021/07/12 01:11:18;;;;;;;5.50;5.00;;;21.70;41.80;;;;;;5015879;28;20458;-78
2021/07/12 01:14:12;;;;;;;5.67;5.27;;;21.70;41.80;;;;;;5016099;28;20198;-78
2021/07/12 01:17:09;;;;;;;5.07;4.70;;;21.70;41.80;;;;;;5015642;28;20460;-78
2021/07/12 01:20:15;;;;;;;5.03;4.63;;;21.70;41.90;;;;;;5015672;28;20420;-78
2021/07/12 01:23:04;;;;;;;5.50;5.10;;;21.70;42.00;;;;;;5015869;28;20418;-78
2021/07/12 01:26:19;;;;;;;5.43;5.03;;;21.70;42.00;;;;;;5015182;28;20397;-79
2021/07/12 01:29:03;;;;;;;5.70;4.73;;;21.70;42.00;;;;;;5015485;28;20479;-78
2021/07/12 01:32:01;;;;;;;4.90;4.60;;;21.70;42.00;;;;;;5014738;28;20397;-78
2021/07/12 01:34:48;;;;;;;5.00;4.50;;;21.70;42.00;;;;;;4998747;28;20426;-78
2021/07/12 01:37:33;;;;;;;5.30;4.90;;;21.70;41.90;;;;;;5015150;28;20416;-78
2021/07/12 01:40:13;;;;;;;4.93;4.63;;;21.70;41.80;;;;;;4998004;28;20443;-78
2021/07/12 01:43:02;;;;;;;4.97;4.70;;;21.70;42.00;;;;;;5015130;28;20408;-78
2021/07/12 01:45:36;;;;;;;6.53;5.20;;;21.60;41.70;;;;;;5014920;28;20431;-78
2021/07/12 01:48:07;;;;;;;4.50;4.20;;;21.60;41.70;;;;;;5015239;28;20439;-78
2021/07/12 01:50:49;;;;;;;5.03;4.60;;;21.60;41.70;;;;;;5014697;28;20586;-78
2021/07/12 01:53:27;;;;;;;5.57;5.17;;;21.60;41.70;;;;;;5015134;28;20432;-77
2021/07/12 01:55:58;;;;;;;5.33;5.03;;;21.60;41.70;;;;;;5014661;28;20409;-78
2021/07/12 01:58:55;;;;;;;5.20;4.80;;;21.60;41.70;;;;;;5014764;28;20426;-78
2021/07/12 02:01:24;;;;;;;5.00;4.60;;;21.60;41.70;;;;;;5015109;28;20415;-78
2021/07/12 02:03:50;;;;;;;4.17;3.97;;;21.60;41.70;;;;;;5014905;28;20495;-79
2021/07/12 02:06:17;;;;;;;4.07;3.87;;;21.60;41.70;;;;;;4997430;28;20444;-78
2021/07/12 02:08:49;;;;;;;5.00;4.70;;;21.60;41.70;;;;;;5015076;28;20463;-78
2021/07/12 02:11:16;;;;;;;5.20;4.90;;;21.60;41.70;;;;;;5015028;28;20502;-78
2021/07/12 02:13:44;;;;;;;5.63;5.23;;;21.60;41.90;;;;;;5014286;28;20484;-78
2021/07/12 02:16:10;;;;;;;4.80;4.50;;;21.60;42.00;;;;;;5014190;28;20435;-78
2021/07/12 02:18:37;;;;;;;4.33;4.07;;;21.70;41.90;;;;;;5014072;28;20433;-78
2021/07/12 02:21:04;;;;;;;4.70;4.30;;;21.60;42.10;;;;;;5013523;28;20432;-78
2021/07/12 02:23:30;;;;;;;5.03;4.73;;;21.60;41.70;;;;;;5014095;28;20412;-78
2021/07/12 02:25:57;;;;;;;4.43;4.23;;;21.60;41.70;;;;;;5014330;28;20926;-78
2021/07/12 02:28:23;;;;;;;5.47;5.00;;;21.60;41.70;;;;;;5015793;28;20424;-78
2021/07/12 02:30:50;;;;;;;4.60;4.20;;;21.50;41.70;;;;;;5016479;28;20404;-78
2021/07/12 02:33:17;;;;;;;4.60;4.40;;;21.50;41.70;;;;;;5016177;28;20408;-78
2021/07/12 02:35:44;;;;;;;4.47;4.17;;;21.60;41.70;;;;;;5015225;28;20413;-78
2021/07/12 02:38:10;;;;;;;4.70;4.40;;;21.60;41.70;;;;;;5014001;28;20440;-78
2021/07/12 02:40:37;;;;;;;4.37;4.17;;;21.60;41.70;;;;;;5015214;28;20502;-78
2021/07/12 02:43:03;;;;;;;5.10;4.60;;;21.60;41.70;;;;;;5014555;28;20432;-79
2021/07/12 02:45:30;;;;;;;4.20;4.00;;;21.60;41.90;;;;;;5014267;28;20511;-78
2021/07/12 02:47:56;;;;;;;9.43;4.23;;;21.60;41.90;;;;;;5014706;28;20518;-78
2021/07/12 02:50:22;;;;;;;4.43;4.13;;;21.60;41.70;;;;;;5014159;28;20966;-78
2021/07/12 02:53:02;;;;;;;3.97;3.67;;;21.60;41.70;;;;;;5014508;28;20173;-78
2021/07/12 02:55:28;;;;;;;4.67;4.37;;;21.60;41.70;;;;;;5014134;28;20426;-78
2021/07/12 02:57:54;;;;;;;4.47;4.23;;;21.60;41.70;;;;;;5014141;28;20432;-78
2021/07/12 03:00:20;;;;;;;3.90;3.60;;;21.60;41.70;;;;;;4996885;28;20201;-78
2021/07/12 03:02:46;;;;;;;5.37;5.00;;;21.60;42.00;;;;;;4996892;28;20512;-78
2021/07/12 03:05:12;;;;;;;4.83;4.53;;;21.60;42.10;;;;;;5014071;28;20443;-78
2021/07/12 03:07:44;;;;;;;3.90;3.70;;;21.60;42.00;;;;;;5014258;28;20201;-78
2021/07/12 03:10:21;;;;;;;4.03;3.83;;;21.60;41.90;;;;;;4996684;28;20205;-79
2021/07/12 03:12:53;;;;;;;4.17;3.97;;;21.60;42.10;;;;;;5014425;28;20823;-78
2021/07/12 03:15:25;;;;;;;4.27;4.00;;;21.60;41.90;;;;;;5014154;28;20409;-78
2021/07/12 03:17:52;;;;;;;4.30;4.10;;;21.60;41.70;;;;;;5014159;28;20894;-79
2021/07/12 03:20:19;;;;;;;4.47;4.07;;;21.60;42.10;;;;;;5013754;28;20432;-78
2021/07/12 03:22:54;;;;;;;5.00;4.70;;;21.60;42.10;;;;;;5014567;28;20416;-78
2021/07/12 03:25:27;;;;;;;4.70;4.40;;;21.60;42.10;;;;;;5014208;28;20898;-78
2021/07/12 03:27:56;;;;;;;4.73;4.40;;;21.60;42.10;;;;;;5014176;28;20435;-78
2021/07/12 03:30:24;;;;;;;4.60;4.30;;;21.60;42.10;;;;;;5013866;28;20599;-78
2021/07/12 03:32:51;;;;;;;5.13;4.20;;;21.50;42.60;;;;;;5015175;28;20787;-78
2021/07/12 03:35:18;;;;;;;4.50;4.27;;;21.60;41.90;;;;;;5013674;28;20416;-78
2021/07/12 03:37:44;;;;;;;4.40;4.10;;;21.60;41.80;;;;;;5014570;28;20439;-78
2021/07/12 03:40:10;;;;;;;4.33;4.10;;;21.60;42.10;;;;;;5014373;28;20495;-78
2021/07/12 03:42:37;;;;;;;4.20;4.00;;;21.60;42.00;;;;;;5014135;28;20993;-78
2021/07/12 03:45:05;;;;;;;4.73;4.33;;;21.60;42.00;;;;;;5013912;28;20438;-79
2021/07/12 03:47:32;;;;;;;3.73;3.53;;;21.50;42.10;;;;;;5014596;28;20436;-79
2021/07/12 03:50:13;;;;;;;5.10;4.67;;;21.60;42.10;;;;;;5015010;28;20471;-79
2021/07/12 03:52:51;;;;;;;4.37;4.17;;;21.50;42.00;;;;;;5015456;28;20404;-79
2021/07/12 03:55:23;;;;;;;4.70;4.47;;;21.60;42.10;;;;;;5017787;28;20466;-79
2021/07/12 03:57:50;;;;;;;4.57;4.27;;;21.60;42.20;;;;;;5018484;28;20435;-79
2021/07/12 04:00:19;;;;;;;4.30;4.10;;;21.50;42.10;;;;;;5018589;28;20806;-79
2021/07/12 04:02:45;;;;;;;4.03;3.83;;;21.50;42.20;;;;;;5018667;28;20416;-79
2021/07/12 04:05:12;;;;;;;4.20;4.00;;;21.50;42.20;;;;;;5018404;28;20440;-79
2021/07/12 04:07:38;;;;;;;4.30;4.10;;;21.60;42.20;;;;;;5019323;28;20432;-79
2021/07/12 04:10:06;;;;;;;4.90;4.60;;;21.60;42.20;;;;;;5020582;28;20451;-78
2021/07/12 04:12:32;;;;;;;4.43;4.13;;;21.60;42.30;;;;;;5021821;28;20408;-78
2021/07/12 04:14:58;;;;;;;4.03;3.83;;;21.60;42.20;;;;;;5021314;28;20412;-78
2021/07/12 04:17:24;;;;;;;4.40;4.20;;;21.50;42.20;;;;;;5003683;28;20965;-78
2021/07/12 04:19:51;;;;;;;4.00;3.80;;;21.60;42.20;;;;;;5019105;28;20188;-79
2021/07/12 04:22:16;;;;;;;4.03;3.73;;;21.50;42.10;;;;;;5017167;28;20879;-78
2021/07/12 04:24:42;;;;;;;4.30;3.90;;;21.50;42.20;;;;;;5016999;28;20423;-78
2021/07/12 04:27:08;;;;;;;4.70;4.27;;;21.60;42.20;;;;;;5016774;28;20707;-78
2021/07/12 04:29:33;;;;;;;4.27;4.07;;;21.50;42.10;;;;;;5016774;28;20212;-78
2021/07/12 04:32:00;;;;;;;4.00;3.80;;;21.50;42.10;;;;;;5015598;28;20188;-78
2021/07/12 04:34:27;;;;;;;4.07;3.80;;;21.60;42.20;;;;;;5016719;28;20654;-78
2021/07/12 04:36:53;;;;;;;4.70;4.50;;;21.50;42.20;;;;;;5017007;28;20443;-78
2021/07/12 04:39:18;;;;;;;4.10;3.90;;;21.60;42.40;;;;;;5016388;28;20413;-79
2021/07/12 04:41:44;;;;;;;4.20;3.97;;;21.50;42.20;;;;;;5016523;28;20673;-79
2021/07/12 04:44:09;;;;;;;4.13;3.93;;;21.60;42.40;;;;;;5016632;28;20648;-79
2021/07/12 04:46:35;;;;;;;4.53;4.30;;;21.60;42.40;;;;;;5016514;28;20204;-78
2021/07/12 04:49:00;;;;;;;5.33;4.90;;;21.60;42.50;;;;;;5016914;28;20239;-79
2021/07/12 04:51:26;;;;;;;5.40;4.70;;;21.60;42.50;;;;;;5015274;28;20188;-78
2021/07/12 04:53:51;;;;;;;4.43;4.13;;;21.60;42.90;;;;;;5035999;28;20196;-77
2021/07/12 04:56:17;;;;;;;4.67;4.33;;;21.60;42.80;;;;;;5034443;28;20176;-78
2021/07/12 04:58:45;;;;;;;14.10;4.13;;;21.50;42.70;;;;;;5035617;28;20569;-78
2021/07/12 05:01:12;;;;;;;4.27;3.97;;;21.50;42.20;;;;;;5018594;28;20192;-78
2021/07/12 05:03:37;;;;;;;3.97;3.77;;;21.50;42.30;;;;;;5036951;28;20462;-78
2021/07/12 05:06:04;;;;;;;6.70;4.83;;;21.50;42.50;;;;;;5034751;28;20782;-78
2021/07/12 05:08:29;;;;;;;6.43;4.40;;;21.50;42.40;;;;;;5036153;28;20250;-79
2021/07/12 05:10:55;;;;;;;4.50;4.20;;;21.50;42.60;;;;;;5036243;28;20408;-79
2021/07/12 05:13:22;;;;;;;5.30;4.20;;;21.50;42.50;;;;;;5036484;28;20184;-79
2021/07/12 05:15:48;;;;;;;4.77;4.20;;;21.50;42.50;;;;;;5036483;28;20440;-79
2021/07/12 05:18:14;;;;;;;4.30;4.10;;;21.50;42.20;;;;;;5036126;28;20431;-78
2021/07/12 05:25:13;;;;;;;4.13;3.83;;;21.50;41.70;;;;;;4972757;28;20201;-81
2021/07/12 06:45:31;;;;;;;4.13;3.83;;;21.40;41.60;;;;;;5012911;28;20563;-81
2021/07/12 06:47:57;;;;;;;7.00;3.70;;;21.50;41.80;;;;;;5011798;28;21146;-80
2021/07/12 06:50:35;;;;;;;5.40;4.17;;;21.50;41.80;;;;;;5019601;28;20471;-81
2021/07/12 06:53:01;;;;;;;7.13;4.13;;;21.50;41.60;;;;;;4999874;28;20421;-81
2021/07/12 06:55:31;;;;;;;4.63;4.23;;;21.50;41.70;;;;;;5016574;28;20416;-83
2021/07/12 06:58:52;;;;;;;5.60;3.43;;;21.50;41.70;;;;;;4991753;28;20209;-83
2021/07/12 07:01:45;;;;;;;7.90;3.90;;;21.50;41.70;;;;;;4989530;28;20502;-81
2021/07/12 07:07:10;;;;;;;4.60;3.60;;;21.50;41.70;;;;;;4990014;28;20451;-84
2021/07/12 07:09:36;;;;;;;7.20;4.80;;;21.50;41.70;;;;;;5008690;28;20464;-80
2021/07/12 07:12:41;;;;;;;6.63;3.97;;;21.50;41.60;;;;;;4998844;28;20495;-82
2021/07/12 07:15:25;;;;;;;5.00;4.10;;;21.50;41.70;;;;;;4987226;28;20424;-80
2021/07/12 07:17:54;;;;;;;8.33;3.93;;;21.50;41.60;;;;;;5030376;28;20503;-82
2021/07/12 07:24:23;;;;;;;3.70;3.50;;;21.50;41.70;;;;;;5000948;28;20462;-81
2021/07/12 07:27:10;;;;;;;4.63;4.23;;;21.50;41.70;;;;;;5014029;28;20451;-80
2021/07/12 07:31:01;;;;;;;5.03;3.80;;;21.50;41.70;;;;;;5033853;28;20471;-81
2021/07/12 07:34:34;;;;;;;3.70;3.50;;;21.50;41.70;;;;;;4960437;29;20486;-83
2021/07/12 07:40:36;;;;;;;3.63;3.33;;;21.50;41.70;;;;;;4898843;29;20461;-82
2021/07/12 07:43:40;;;;;;;3.60;3.40;;;21.50;41.60;;;;;;4956656;29;21198;-82
2021/07/12 07:46:39;;;;;;;5.67;4.40;;;21.50;41.70;;;;;;5001179;28;20518;-82
2021/07/12 07:49:36;;;;;;;4.30;3.90;;;21.50;41.90;;;;;;5018836;28;20502;-82
2021/07/12 07:52:56;;;;;;;5.27;3.73;;;21.60;41.70;;;;;;5018654;28;20408;-84
2021/07/12 07:55:54;;;;;;;3.83;3.63;;;21.60;41.70;;;;;;5014472;28;20479;-82
2021/07/12 07:58:24;;;;;;;3.80;3.50;;;21.60;41.70;;;;;;5000449;28;20475;-82
2021/07/12 08:00:57;;;;;;;4.00;3.73;;;21.60;41.70;;;;;;5034890;28;20479;-81
2021/07/12 08:04:38;;;;;;;3.80;3.60;;;21.60;41.70;;;;;;5034927;28;20510;-83
2021/07/12 08:07:07;;;;;;;4.63;4.30;;;21.70;41.80;;;;;;4981592;28;20443;-81
2021/07/12 08:09:56;;;;;;;4.40;4.20;;;21.60;41.80;;;;;;5034461;28;20455;-82
2021/07/12 08:12:33;;;;;;;4.60;4.20;;;21.70;41.80;;;;;;5017892;28;20423;-80
2021/07/12 08:15:26;;;;;;;4.20;3.90;;;21.70;41.80;;;;;;5033919;28;21149;-81
2021/07/12 08:18:16;;;;;;;3.63;3.43;;;21.70;41.80;;;;;;5018239;28;20973;-82
2021/07/12 08:21:30;;;;;;;4.87;4.40;;;21.70;41.80;;;;;;5017376;28;20408;-81
2021/07/12 08:34:42;;;;;;;4.07;3.67;;;21.80;41.90;;;;;;4904292;29;20474;-82
2021/07/12 08:37:51;;;;;;;;;;;;;;;;;;;;;
2021/07/12 08:40:59;;;;;;;3.70;3.50;;;21.80;41.90;;;;;;4862710;29;20420;-82
2021/07/12 08:44:11;;;;;;;4.20;3.80;;;21.80;41.90;;;;;;4862756;29;20423;-83
2021/07/12 08:53:40;;;;;;;3.90;3.70;;;21.90;42.00;;;;;;4842581;29;20540;-81
2021/07/12 08:56:34;;;;;;;3.93;3.70;;;21.80;41.50;;;;;;4835711;29;20507;-82
2021/07/12 08:59:53;;;;;;;4.60;4.10;;;21.90;42.00;;;;;;4824516;29;20445;-79
2021/07/12 09:02:23;;;;;;;4.27;4.07;;;21.90;42.00;;;;;;4858918;29;20454;-80
2021/07/12 09:04:52;;;;;;;5.00;4.70;;;21.90;42.00;;;;;;4939982;28;20496;-78
2021/07/12 09:07:38;;;;;;;;;;;;;;;;;;;;;
2021/07/12 09:10:11;;;;;;;4.90;4.50;;;21.90;42.00;;;;;;4993732;28;20471;-79
2021/07/12 09:12:48;;;;;;;6.83;3.90;;;21.90;42.10;;;;;;4993579;28;20453;-79
2021/07/12 09:15:22;;;;;;;4.50;4.10;;;21.90;42.20;;;;;;4980890;28;20428;-79
2021/07/12 09:17:50;;;;;;;4.77;4.47;;;21.90;42.00;;;;;;4997097;28;20819;-80
2021/07/12 09:20:33;;;;;;;7.63;4.40;;;21.90;42.00;;;;;;4995593;28;20427;-79
2021/07/12 09:23:21;;;;;;;3.90;3.60;;;21.90;42.00;;;;;;5015422;28;20795;-80
2021/07/12 09:26:03;;;;;;;4.10;3.80;;;22.00;42.10;;;;;;5017218;28;20470;-79
2021/07/12 09:28:40;;;;;;;4.00;3.80;;;22.00;42.10;;;;;;5016722;28;20451;-79
2021/07/12 09:31:25;;;;;;;6.70;4.47;;;22.00;42.10;;;;;;5000385;28;20415;-80
2021/07/12 09:33:51;;;;;;;5.60;4.17;;;22.00;42.10;;;;;;5000285;28;20408;-79
2021/07/12 09:36:17;;;;;;;4.00;3.80;;;22.00;42.10;;;;;;5016673;28;20483;-79
2021/07/12 09:38:44;;;;;;;6.90;4.83;;;22.00;42.10;;;;;;4998942;28;20197;-80
2021/07/12 09:41:30;;;;;;;3.93;3.70;;;22.00;42.10;;;;;;4999617;28;20412;-79
2021/07/12 09:44:02;;;;;;;3.87;3.57;;;22.00;42.00;;;;;;5017171;28;20396;-80
2021/07/12 09:46:31;;;;;;;4.80;4.40;;;22.00;42.10;;;;;;5016671;28;20491;-79
2021/07/12 09:49:16;;;;;;;9.23;4.30;;;22.00;42.10;;;;;;4999118;28;20408;-79
2021/07/12 09:51:43;;;;;;;4.20;3.90;;;22.00;42.10;;;;;;4982193;28;20425;-79
2021/07/12 09:58:08;;;;;;;4.50;4.20;;;22.00;42.10;;;;;;5017822;28;20487;-84
2021/07/12 10:01:00;;;;;;;4.20;3.90;;;22.00;42.00;;;;;;5012833;28;20918;-83
2021/07/12 10:03:27;;;;;;;4.70;4.30;;;21.90;42.00;;;;;;4998656;28;21201;-80
2021/07/12 10:05:55;;;;;;;5.57;4.37;;;21.90;42.00;;;;;;5006606;28;20436;-79
2021/07/12 10:08:39;;;;;;;4.50;3.97;;;22.00;42.00;;;;;;5016040;28;20778;-80
2021/07/12 10:14:39;;;;;;;3.80;3.50;;;21.90;42.00;;;;;;5016535;28;20435;-80
2021/07/12 10:17:09;;;;;;;4.43;4.03;;;21.90;42.00;;;;;;5014268;28;20425;-82
2021/07/12 10:19:39;;;;;;;4.33;4.13;;;21.90;42.00;;;;;;5014727;28;20514;-81
2021/07/12 10:22:34;;;;;;;4.30;4.00;;;21.90;42.00;;;;;;4982636;28;20426;-81
2021/07/12 10:25:48;;;;;;;4.03;3.73;;;21.90;42.00;;;;;;4962615;28;20480;-85
2021/07/12 10:29:00;;;;;;;3.80;3.47;;;21.90;42.00;;;;;;4948591;28;20465;-82
2021/07/12 10:32:29;;;;;;;4.23;3.83;;;21.90;42.00;;;;;;4954829;28;20578;-81
2021/07/12 10:34:57;;;;;;;4.00;3.80;;;21.90;42.00;;;;;;4900501;28;20453;-83
2021/07/12 10:37:24;;;;;;;4.27;3.83;;;21.80;41.90;;;;;;4960460;28;20460;-82
2021/07/12 10:39:59;;;;;;;5.13;4.73;;;21.90;42.00;;;;;;4959269;28;20569;-79
2021/07/12 10:42:43;;;;;;;4.57;4.17;;;21.90;42.00;;;;;;4959774;28;20456;-82
2021/07/12 10:45:26;;;;;;;4.50;4.30;;;21.80;42.00;;;;;;4958456;28;20473;-82
2021/07/12 10:47:58;;;;;;;4.50;4.10;;;21.80;41.90;;;;;;4960175;28;21117;-79
2021/07/12 10:50:38;;;;;;;4.50;4.20;;;21.80;42.00;;;;;;4961486;28;20467;-81
2021/07/12 10:53:26;;;;;;;3.87;3.67;;;21.80;41.90;;;;;;4961490;28;20529;-80
2021/07/12 10:55:58;;;;;;;4.40;4.10;;;21.80;41.90;;;;;;4959314;28;20513;-82
2021/07/12 10:58:26;;;;;;;3.87;3.67;;;21.80;41.90;;;;;;4960127;28;20472;-83
2021/07/12 11:00:54;;;;;;;4.30;4.00;;;21.80;42.00;;;;;;4958913;28;20537;-80
2021/07/12 11:03:42;;;;;;;4.60;4.30;;;21.80;42.20;;;;;;4956191;28;20460;-78
2021/07/12 11:06:15;;;;;;;4.10;3.90;;;21.90;42.40;;;;;;4955842;28;20470;-81
2021/07/12 11:08:51;;;;;;;4.97;4.50;;;21.90;42.00;;;;;;4958151;28;20450;-80
2021/07/12 11:11:19;;;;;;;3.80;3.57;;;22.00;42.10;;;;;;4955847;28;20453;-80
2021/07/12 11:14:02;;;;;;;4.07;3.87;;;21.90;42.00;;;;;;4956338;28;20450;-79
2021/07/12 11:16:42;;;;;;;3.93;3.60;;;22.00;40.90;;;;;;4941636;28;20500;-80
2021/07/12 11:19:19;;;;;;;4.80;4.07;;;22.10;39.90;;;;;;4955363;28;20450;-81
2021/07/12 11:21:45;;;;;;;4.80;4.40;;;22.00;39.90;;;;;;4960905;28;21023;-81
2021/07/12 11:24:11;;;;;;;4.07;3.67;;;22.00;39.70;;;;;;4960548;28;20445;-80
2021/07/12 11:26:40;;;;;;;5.00;3.90;;;22.10;40.20;;;;;;4957495;28;20449;-82
2021/07/12 11:29:41;;;;;;;4.50;4.17;;;22.10;39.70;;;;;;4958750;28;20728;-81
2021/07/12 11:32:09;;;;;;;3.90;3.60;;;22.10;39.60;;;;;;4969569;28;20457;-81
2021/07/12 11:34:39;;;;;;;3.77;3.47;;;22.10;39.40;;;;;;4977770;28;20465;-81
2021/07/12 11:37:06;;;;;;;3.93;3.73;;;22.10;39.50;;;;;;4979732;28;20465;-80
2021/07/12 11:39:39;;;;;;;4.50;3.23;;;22.20;38.80;;;;;;5002165;28;20988;-80
2021/07/12 11:42:30;;;;;;;3.63;3.33;;;22.20;38.30;;;;;;4999086;28;21017;-80
2021/07/12 11:45:00;;;;;;;3.60;3.40;;;22.20;39.00;;;;;;4999754;28;20464;-80
2021/07/12 11:47:35;;;;;;;3.83;3.30;;;22.10;39.10;;;;;;5004500;28;20452;-81
2021/07/12 11:50:11;;;;;;;3.60;3.40;;;22.10;38.90;;;;;;5002050;28;20598;-80
2021/07/12 11:52:39;;;;;;;3.40;3.20;;;22.10;38.60;;;;;;5006371;28;20491;-81
2021/07/12 11:55:33;;;;;;;3.83;3.63;;;22.10;38.00;;;;;;5002593;28;21053;-81
2021/07/12 11:58:01;;;;;;;4.33;4.00;;;22.20;38.70;;;;;;5001535;28;20936;-80
2021/07/12 12:00:32;;;;;;;3.87;3.57;;;22.20;38.80;;;;;;5006301;28;20463;-80
2021/07/12 12:03:09;;;;;;;4.77;4.10;;;22.20;38.40;;;;;;4988729;28;20452;-79
2021/07/12 12:05:37;;;;;;;7.97;5.07;;;22.20;38.20;;;;;;5001744;28;20876;-81
2021/07/12 12:08:04;;;;;;;11.63;7.53;;;22.30;38.10;;;;;;4986083;28;20456;-80
2021/07/12 12:10:33;;;;;;;23.60;10.97;;;22.20;38.20;;;;;;4997366;28;20463;-79
2021/07/12 12:13:15;;;;;;;20.87;11.57;;;22.20;38.70;;;;;;4980605;28;20854;-80
2021/07/12 12:15:45;;;;;;;14.60;8.27;;;22.30;39.40;;;;;;4998687;28;20578;-79
2021/07/12 12:18:19;;;;;;;9.97;6.17;;;22.30;38.90;;;;;;4977767;28;20463;-80
2021/07/12 12:20:57;;;;;;;8.50;6.43;;;22.30;38.40;;;;;;4987830;28;20531;-80
2021/07/12 12:23:39;;;;;;;10.77;7.63;;;22.30;38.70;;;;;;4958419;28;20578;-80
2021/07/12 12:26:23;;;;;;;9.03;6.57;;;22.30;39.00;;;;;;4970081;28;20461;-80
2021/07/12 12:28:58;;;;;;;7.07;5.37;;;22.30;39.70;;;;;;4965761;28;20507;-80
2021/07/12 12:31:31;;;;;;;11.07;5.20;;;22.30;38.80;;;;;;4981255;28;20444;-77
2021/07/12 12:33:58;;;;;;;7.70;5.53;;;22.30;38.80;;;;;;4978042;28;20452;-79
2021/07/12 12:36:36;;;;;;;6.73;4.33;;;22.30;38.60;;;;;;4963980;28;20542;-81
2021/07/12 12:39:13;;;;;;;5.37;4.87;;;22.40;38.10;;;;;;4973789;28;20448;-80
2021/07/12 12:41:44;;;;;;;5.83;5.20;;;22.40;37.90;;;;;;4993678;28;20435;-81
2021/07/12 12:44:49;;;;;;;3.73;3.53;;;22.40;37.80;;;;;;4992898;28;20443;-79
2021/07/12 12:47:30;;;;;;;4.33;4.10;;;22.50;37.40;;;;;;4966609;28;20444;-78
2021/07/12 12:49:57;;;;;;;4.07;3.77;;;22.40;37.60;;;;;;4958489;28;20476;-78
2021/07/12 12:53:02;;;;;;;4.40;4.17;;;22.40;38.00;;;;;;4957887;28;20457;-80
2021/07/12 12:55:29;;;;;;;3.70;3.50;;;22.40;38.20;;;;;;4953444;28;20468;-79
2021/07/12 12:57:55;;;;;;;4.20;3.93;;;22.40;37.80;;;;;;4926743;28;20509;-79
2021/07/12 13:00:26;;;;;;;3.70;3.50;;;22.50;37.30;;;;;;4926452;29;20542;-79
2021/07/12 13:02:53;;;;;;;4.03;3.70;;;22.50;37.50;;;;;;4933515;29;20459;-78
2021/07/12 13:05:25;;;;;;;4.00;3.60;;;22.50;37.50;;;;;;4923687;29;20462;-78
2021/07/12 13:07:54;;;;;;;4.00;3.80;;;22.50;37.40;;;;;;4920541;28;20455;-80
2021/07/12 13:10:27;;;;;;;3.83;3.63;;;22.50;37.40;;;;;;4918552;29;20583;-78
2021/07/12 13:12:55;;;;;;;3.87;3.67;;;22.50;37.60;;;;;;4876350;29;20496;-80
2021/07/12 13:15:32;;;;;;;3.67;3.47;;;22.50;37.70;;;;;;4882772;29;20456;-77
2021/07/12 13:18:08;;;;;;;3.63;3.33;;;22.50;37.70;;;;;;4869221;29;20578;-79
2021/07/12 13:20:35;;;;;;;4.70;4.30;;;22.50;37.70;;;;;;4885743;29;21096;-80
2021/07/12 13:23:03;;;;;;;4.20;3.90;;;22.50;37.80;;;;;;4903793;29;20500;-79
2021/07/12 13:25:30;;;;;;;3.37;3.17;;;22.40;37.70;;;;;;4903102;29;20460;-80
2021/07/12 13:27:58;;;;;;;4.20;3.90;;;22.50;37.90;;;;;;4901827;29;20460;-80
2021/07/12 13:30:26;;;;;;;4.17;3.87;;;22.50;37.90;;;;;;4902023;29;20509;-79
2021/07/12 13:32:54;;;;;;;3.43;3.20;;;22.50;37.90;;;;;;4903472;29;20956;-80
2021/07/12 13:35:27;;;;;;;3.93;3.63;;;22.50;38.10;;;;;;4903777;29;21284;-80
2021/07/12 13:37:54;;;;;;;3.37;3.20;;;22.50;38.00;;;;;;4904517;29;20461;-79
2021/07/12 13:40:22;;;;;;;3.33;3.10;;;22.60;37.70;;;;;;4902536;29;20542;-79
2021/07/12 13:42:49;;;;;;;4.40;4.10;;;22.50;37.80;;;;;;4900826;28;20590;-79
2021/07/12 13:45:15;;;;;;;4.53;3.70;;;22.50;37.90;;;;;;4994814;28;20451;-80
2021/07/12 13:47:41;;;;;;;5.40;3.47;;;22.50;37.90;;;;;;5020126;28;20994;-79
2021/07/12 13:50:09;;;;;;;3.80;3.60;;;22.50;37.90;;;;;;5002608;28;20459;-79
2021/07/12 13:52:35;;;;;;;5.43;3.90;;;22.50;38.10;;;;;;5022053;28;20710;-79
2021/07/12 13:55:01;;;;;;;3.83;3.60;;;22.50;38.20;;;;;;5022067;28;20455;-79
2021/07/12 13:57:27;;;;;;;4.10;3.90;;;22.50;38.20;;;;;;5001517;28;20229;-80
2021/07/12 13:59:53;;;;;;;4.33;3.93;;;22.60;38.20;;;;;;4997162;28;20572;-79
2021/07/12 14:02:19;;;;;;;4.10;3.67;;;22.60;38.20;;;;;;4998471;28;20510;-79
2021/07/12 14:04:45;;;;;;;3.90;3.70;;;22.60;38.40;;;;;;4996381;28;20722;-79
2021/07/12 14:07:12;;;;;;;3.73;3.53;;;22.50;38.60;;;;;;4998679;28;20458;-79
2021/07/12 14:09:39;;;;;;;4.63;4.13;;;22.60;38.70;;;;;;4997469;28;21014;-79
2021/07/12 14:12:06;;;;;;;3.60;3.40;;;22.60;38.60;;;;;;4998250;28;20472;-79
2021/07/12 14:14:32;;;;;;;3.63;3.43;;;22.60;38.70;;;;;;4996934;28;20602;-79
2021/07/12 14:17:00;;;;;;;4.00;3.80;;;22.50;38.80;;;;;;4998013;28;20448;-79
2021/07/12 14:19:26;;;;;;;3.90;3.70;;;22.60;38.80;;;;;;4997289;28;21029;-79
2021/07/12 14:21:52;;;;;;;4.00;3.80;;;22.60;39.00;;;;;;4998170;28;20535;-80
2021/07/12 14:24:18;;;;;;;3.87;3.67;;;22.50;38.90;;;;;;4998436;28;20491;-80
2021/07/12 14:26:44;;;;;;;3.80;3.60;;;22.60;39.00;;;;;;4996460;28;20327;-80
2021/07/12 14:29:10;;;;;;;3.70;3.50;;;22.60;38.90;;;;;;4999963;28;20240;-80
2021/07/12 14:31:38;;;;;;;4.73;4.30;;;22.60;39.10;;;;;;4998911;28;20518;-81
2021/07/12 14:34:03;;;;;;;4.10;3.90;;;22.60;39.20;;;;;;5000600;28;20328;-80
2021/07/12 14:36:29;;;;;;;3.73;3.43;;;22.60;39.20;;;;;;4997441;28;20480;-80
2021/07/12 14:38:54;;;;;;;4.07;3.83;;;22.60;39.30;;;;;;4998627;28;20260;-80
2021/07/12 14:41:20;;;;;;;4.20;3.90;;;22.60;39.10;;;;;;4999505;28;20697;-80
2021/07/12 14:43:48;;;;;;;4.33;4.03;;;22.60;39.30;;;;;;4999362;28;20249;-78
2021/07/12 14:46:14;;;;;;;4.07;3.77;;;22.60;39.30;;;;;;4980229;28;20220;-80
2021/07/12 14:48:40;;;;;;;4.53;4.30;;;22.60;39.30;;;;;;5000231;28;20451;-80
2021/07/12 14:51:05;;;;;;;4.50;4.20;;;22.60;39.30;;;;;;4980316;28;20224;-79
2021/07/12 14:53:31;;;;;;;4.10;3.83;;;22.60;39.40;;;;;;4998460;28;20297;-80
2021/07/12 14:55:57;;;;;;;4.00;3.80;;;22.60;39.50;;;;;;4996233;28;20243;-81
2021/07/12 14:58:23;;;;;;;4.23;3.93;;;22.60;39.50;;;;;;4999904;28;21152;-80
2021/07/12 15:00:55;;;;;;;4.60;4.30;;;22.60;39.80;;;;;;4992540;28;20455;-80
2021/07/12 15:03:21;;;;;;;4.33;3.83;;;22.60;40.00;;;;;;4996509;28;20444;-80
2021/07/12 15:05:46;;;;;;;4.73;4.43;;;22.60;39.90;;;;;;4995244;28;20804;-80
2021/07/12 15:08:13;;;;;;;8.13;4.90;;;22.60;39.90;;;;;;4997413;28;20681;-81
2021/07/12 15:10:40;;;;;;;5.90;5.40;;;22.60;40.10;;;;;;4996918;28;20236;-80
2021/07/12 15:13:06;;;;;;;5.63;4.97;;;22.60;40.50;;;;;;4996299;28;20456;-82
2021/07/12 15:15:34;;;;;;;4.80;4.40;;;22.60;40.40;;;;;;4996693;28;21070;-80
2021/07/12 15:18:00;;;;;;;6.30;4.53;;;22.60;40.70;;;;;;4996608;28;20974;-81
2021/07/12 15:20:26;;;;;;;8.10;5.33;;;22.50;40.70;;;;;;4997436;28;20451;-80